aviador You're here:

KFRG Decoded Metar

FARMINGDALE in NY, USA
Report Time2017-07-21 03:53:00
UTC Time2017-07-21 04:33:34
Flight Rules vfr VFR
Wind290° at 05 kt
W.Decomp.*RWY 32: 4.8 kt HW 1.4 kt LCW
RWY 01: 2.0 kt HW 4.6 kt LCW
W.Rank290° ranks 9
Current wind is below 290° avg. (8.0)
Visibility9999 m
Phenomena:N/A
Clouds:N/A
Expected CloudBase > 2,400 ft AGL from Temp-Dew spread
CeilingNone
Temp26°C (ISA +11)
Dew Point20°C (70% RH)
QNH1012 hPa
Density Alt1,699 ft
Elevation69 ft
Report Wrong Elevation
Raw Report
KFRG 210353Z AUTO 29005KT 10SM CLR 26/20 A2987 RMK AO2 SLP113
T02610200=

Extra information for KFRG:More info

Metar Taf Metar & Taf Last 4 Metars F.Rules Stats Wind Profile Meteogram Temp Stats Airport Information Weather charts Add Link Nearby VenuesMetar ALERT Operation Metar Decoded Social comments

AIRNAV info for KFRG